»·PEaware :: N4818D KSNA-KSMO

N4818D :: KSNA-KSMO

FLIGHT INFORMATION

Flight Status: Arrived
Operator: Privately registered:
United States
More flights under this callsign
Pilot: Ryan V. (26764)
Aircraft: CESSNA 172 SKYHAWK
(C172)
More flights by this aircraft type
Origin: KSNA John Wayne-Orange Co
United States
Destination: KSMO Santa Monica Mun
United States
More flights between these airports :: More routes between these airports
Route: +SLI V8 POXKU V363 BAYJY V186 DARTS SMO
File this flight plan on PilotEdge
Remarks: I4 Rating
Altitude:
(Current/Filed)
4,000ft
Speed:
(Current/Filed)
110kts
Departed: 01-Dec-19 04:43 PM
Arrived: 01-Dec-19 05:20 PM
Distance/Time
Traveled:
36nm/0:36
Distance/Time
To Go:
Arrived

Flight Plot

Page will automatically refresh every two minutes.

Flight plan parsing failed; only flown route is shown


Map Options




Map Legend


Flown Route
Filed Route
Departure Airport
Arrival Airport
Navaid (VOR, NDB)
Fix

Horizontal Profiles

Position Reports

Time Latitude Longitude Heading Altitude Ground
Speed
01-Dec-19 16:16 33.676080 -117.870909 219 60ft 0kts
01-Dec-19 16:17 33.676080 -117.870909 219 60ft 0kts
01-Dec-19 16:18 33.676080 -117.870909 219 60ft 0kts
01-Dec-19 16:19 33.676080 -117.870909 219 60ft 0kts
01-Dec-19 16:20 33.676080 -117.870909 219 60ft 0kts
01-Dec-19 16:21 33.676080 -117.870909 219 60ft 0kts
01-Dec-19 16:22 33.676080 -117.870909 219 60ft 0kts
01-Dec-19 16:23 33.676080 -117.870909 219 60ft 0kts
01-Dec-19 16:24 33.676080 -117.870909 219 60ft 0kts
01-Dec-19 16:25 33.676080 -117.870909 219 60ft 0kts
01-Dec-19 16:26 33.676080 -117.870909 219 60ft 0kts
01-Dec-19 16:27 33.676080 -117.870909 219 60ft 0kts
01-Dec-19 16:28 33.676080 -117.870909 219 60ft 0kts
01-Dec-19 16:29 33.676080 -117.870909 219 60ft 0kts
01-Dec-19 16:30 33.676080 -117.870909 219 60ft 0kts
01-Dec-19 16:31 33.676080 -117.870909 219 60ft 0kts
01-Dec-19 16:32 33.676080 -117.870909 219 60ft 0kts
01-Dec-19 16:33 33.676080 -117.870909 219 60ft 0kts
01-Dec-19 16:34 33.676080 -117.870909 219 60ft 0kts
01-Dec-19 16:35 33.676080 -117.870909 219 60ft 0kts
01-Dec-19 16:36 33.676080 -117.870909 219 60ft 0kts
01-Dec-19 16:37 33.676080 -117.870909 219 60ft 0kts
01-Dec-19 16:38 33.675914 -117.870844 133 60ft 9kts
01-Dec-19 16:39 33.680361 -117.867559 27 60ft 21kts
01-Dec-19 16:40 33.681610 -117.866658 193 60ft 2kts
01-Dec-19 16:41 33.681306 -117.866527 139 60ft 0kts
01-Dec-19 16:42 33.672637 -117.870908 214 395ft 70kts
01-Dec-19 16:43 33.660766 -117.888223 240 1391ft 71kts
01-Dec-19 16:44 33.649239 -117.911676 241 2186ft 94kts
01-Dec-19 16:45 33.637180 -117.935548 241 3262ft 74kts
01-Dec-19 16:46 33.639767 -117.951089 1 4149ft 78kts
01-Dec-19 16:47 33.661827 -117.937444 21 4867ft 96kts
01-Dec-19 16:48 33.686231 -117.921392 21 5573ft 102kts
01-Dec-19 16:49 33.712839 -117.904118 21 6007ft 126kts
01-Dec-19 16:50 33.744905 -117.884298 21 6001ft 127kts
01-Dec-19 16:51 33.776303 -117.865050 21 6001ft 126kts
01-Dec-19 16:52 33.807944 -117.845925 21 6001ft 127kts
01-Dec-19 16:53 33.839693 -117.826821 23 6001ft 128kts
01-Dec-19 16:54 33.857359 -117.789964 30 6002ft 127kts
01-Dec-19 16:55 33.890177 -117.783390 352 6003ft 119kts
01-Dec-19 16:56 33.923358 -117.783836 351 6003ft 119kts
01-Dec-19 16:57 33.956226 -117.784528 351 6007ft 120kts
01-Dec-19 16:58 33.990396 -117.785247 351 6008ft 122kts
01-Dec-19 16:59 34.013014 -117.807310 293 6010ft 109kts
01-Dec-19 17:00 34.024465 -117.841147 289 6011ft 108kts
01-Dec-19 17:01 34.035109 -117.875411 289 6012ft 108kts
01-Dec-19 17:02 34.045793 -117.910033 289 6012ft 111kts
01-Dec-19 17:03 34.056662 -117.945303 290 6011ft 112kts
01-Dec-19 17:04 34.067544 -117.980646 290 6011ft 112kts
01-Dec-19 17:05 34.078486 -118.016234 290 6010ft 113kts
01-Dec-19 17:06 34.089518 -118.052263 290 6009ft 113kts
01-Dec-19 17:07 34.100657 -118.088509 290 5990ft 114kts
01-Dec-19 17:08 34.111757 -118.124696 290 5991ft 114kts
01-Dec-19 17:09 34.122804 -118.160810 290 5990ft 114kts
01-Dec-19 17:10 34.131972 -118.197165 280 5493ft 116kts
01-Dec-19 17:11 34.126462 -118.237054 262 4668ft 124kts
01-Dec-19 17:12 34.119631 -118.277789 262 3992ft 114kts
01-Dec-19 17:13 34.113388 -118.313910 262 3859ft 115kts
01-Dec-19 17:14 34.093194 -118.343908 211 3293ft 128kts
01-Dec-19 17:15 34.064969 -118.368367 215 2467ft 119kts
01-Dec-19 17:16 34.042957 -118.394193 253 1458ft 108kts
01-Dec-19 17:17 34.035241 -118.427695 234 877ft 87kts
01-Dec-19 17:18 34.021218 -118.444884 222 266ft 57kts
01-Dec-19 17:19 34.014848 -118.453102 313 135ft 10kts
01-Dec-19 17:20 34.015041 -118.453333 317 135ft 2kts
01-Dec-19 17:21 34.016614 -118.452418 135 141ft 0kts

Navigation Log

Ident Type
Flight plan parsing failed, navigation log unavailable